createdAt,value
2019-01-05T00:02:58.335Z,15.47
2019-01-05T00:05:37.554Z,16.57
2019-01-05T00:08:10.782Z,15.00
2019-01-05T00:10:43.594Z,16.07
2019-01-05T00:13:13.830Z,15.60
2019-01-05T00:15:55.935Z,15.70
2019-01-05T00:18:26.498Z,15.97
2019-01-05T00:20:57.663Z,15.93
2019-01-05T00:23:28.542Z,16.57
2019-01-05T00:26:01.779Z,16.97
2019-01-05T00:28:32.394Z,16.63
2019-01-05T00:31:09.145Z,16.60
2019-01-05T00:33:49.569Z,16.50
2019-01-05T00:36:35.660Z,16.10
2019-01-05T00:39:13.565Z,15.67
2019-01-05T00:41:49.901Z,14.60
2019-01-05T00:44:27.041Z,14.93
2019-01-05T00:47:01.697Z,15.97
2019-01-05T00:49:33.754Z,15.17
2019-01-05T00:52:16.907Z,16.50
2019-01-05T00:55:07.714Z,16.27
2019-01-05T00:57:54.753Z,15.10
2019-01-05T01:00:30.659Z,15.63
2019-01-05T01:03:17.554Z,17.23
2019-01-05T01:05:53.962Z,16.47
2019-01-05T01:08:40.497Z,16.20
2019-01-05T01:11:10.994Z,14.97
2019-01-05T01:13:54.796Z,15.80
2019-01-05T01:16:37.268Z,16.83
2019-01-05T01:19:10.346Z,15.40
2019-01-05T01:21:55.736Z,15.17
2019-01-05T01:24:31.897Z,14.97
2019-01-05T01:27:05.641Z,16.03
2019-01-05T01:29:48.522Z,16.10
2019-01-05T01:32:24.759Z,16.57
2019-01-05T01:34:57.866Z,16.20
2019-01-05T01:37:47.333Z,15.17
2019-01-05T01:40:17.914Z,16.63
2019-01-05T01:42:54.012Z,15.47
2019-01-05T01:45:29.372Z,17.00
2019-01-05T01:48:18.244Z,16.10
2019-01-05T01:51:01.081Z,18.40
2019-01-05T01:53:41.442Z,16.20
2019-01-05T01:56:26.291Z,16.80
2019-01-05T01:59:15.337Z,17.07
2019-01-05T02:01:58.006Z,16.70
2019-01-05T02:04:31.966Z,16.30
2019-01-05T02:07:12.188Z,16.90
2019-01-05T02:09:47.238Z,17.03
2019-01-05T02:12:20.431Z,16.57
2019-01-05T02:15:11.420Z,15.37
2019-01-05T02:17:47.418Z,16.10
2019-01-05T02:20:48.066Z,14.80
2019-01-05T02:23:38.978Z,16.17
2019-01-05T02:26:15.283Z,15.33
2019-01-05T02:29:06.786Z,15.83
2019-01-05T02:31:56.360Z,16.43
2019-01-05T02:34:47.554Z,15.83
2019-01-05T02:37:54.833Z,16.50
2019-01-05T02:41:10.111Z,15.67
2019-01-05T02:43:55.240Z,15.57
2019-01-05T02:46:49.481Z,14.03
2019-01-05T02:49:48.269Z,15.20
2019-01-05T02:52:37.669Z,15.33
2019-01-05T02:55:19.563Z,13.40
2019-01-05T02:58:10.198Z,15.43
2019-01-05T03:01:21.264Z,13.43
2019-01-05T03:04:33.138Z,13.70
2019-01-05T03:07:15.323Z,14.77
2019-01-05T03:10:31.998Z,12.80
2019-01-05T03:13:33.186Z,13.33
2019-01-05T03:16:44.163Z,14.10
2019-01-05T03:19:32.164Z,12.40
2019-01-05T03:22:14.230Z,14.17
2019-01-05T03:25:31.179Z,12.83
2019-01-05T03:28:37.551Z,13.73
2019-01-05T03:31:31.984Z,12.27
2019-01-05T03:34:17.187Z,13.87
2019-01-05T03:37:28.007Z,14.33
2019-01-05T03:40:41.935Z,13.77
2019-01-05T03:43:38.860Z,13.60
2019-01-05T03:46:49.476Z,13.37
2019-01-05T03:49:55.845Z,12.97
2019-01-05T03:53:05.352Z,12.83
2019-01-05T03:55:50.346Z,11.57
2019-01-05T03:58:58.086Z,13.03
2019-01-05T04:01:59.773Z,11.73
2019-01-05T04:05:11.731Z,12.33
2019-01-05T04:08:21.119Z,11.87
2019-01-05T04:11:19.763Z,12.07
2019-01-05T04:14:09.528Z,11.97
2019-01-05T04:16:51.563Z,12.40
2019-01-05T04:19:45.610Z,11.30
2019-01-05T04:22:27.758Z,10.73
2019-01-05T04:25:15.952Z,11.73
2019-01-05T04:28:03.822Z,10.53
2019-01-05T04:30:51.656Z,12.07
2019-01-05T04:33:27.648Z,11.33
2019-01-05T04:36:38.611Z,13.10
2019-01-05T04:39:47.811Z,11.53
2019-01-05T04:42:23.803Z,11.70
2019-01-05T04:45:21.573Z,10.27
2019-01-05T04:48:13.845Z,9.60
2019-01-05T04:51:07.667Z,10.87
2019-01-05T04:54:14.822Z,10.87
2019-01-05T04:56:56.727Z,10.93
2019-01-05T04:59:58.401Z,11.83
2019-01-05T05:02:57.307Z,10.40
2019-01-05T05:05:52.948Z,11.00
2019-01-05T05:08:49.842Z,11.23
2019-01-05T05:12:02.031Z,11.40
2019-01-05T05:14:59.102Z,10.77
2019-01-05T05:18:14.959Z,11.20
2019-01-05T05:21:07.827Z,11.07
2019-01-05T05:24:04.856Z,11.50
2019-01-05T05:27:02.294Z,10.77
2019-01-05T05:29:44.108Z,10.30
2019-01-05T05:33:01.079Z,11.13
2019-01-05T05:36:16.502Z,10.47
2019-01-05T05:39:15.286Z,10.83
2019-01-05T05:42:18.789Z,11.17
2019-01-05T05:45:32.695Z,10.67
2019-01-05T05:48:46.418Z,9.10
2019-01-05T05:51:36.281Z,9.67
2019-01-05T05:54:33.414Z,10.23
2019-01-05T05:57:37.627Z,10.37
2019-01-05T06:00:31.879Z,9.20
2019-01-05T06:03:23.282Z,9.40
2019-01-05T06:06:40.380Z,9.93
2019-01-05T06:09:43.792Z,9.37
2019-01-05T06:12:40.998Z,10.50
2019-01-05T06:15:38.394Z,9.67
2019-01-05T06:19:01.254Z,9.37
2019-01-05T06:22:09.169Z,9.77
2019-01-05T06:25:15.540Z,9.23
2019-01-05T06:28:05.154Z,9.13
2019-01-05T06:30:53.549Z,8.70
2019-01-05T06:33:41.854Z,8.70
2019-01-05T06:36:33.114Z,8.80
2019-01-05T06:39:39.538Z,9.03
2019-01-05T06:42:46.382Z,9.60
2019-01-05T06:45:47.818Z,9.30
2019-01-05T06:48:41.631Z,9.00
2019-01-05T06:51:46.690Z,8.90
2019-01-05T06:54:38.865Z,9.67
2019-01-05T06:57:46.995Z,9.07
2019-01-05T07:00:36.573Z,8.63
2019-01-05T07:03:50.441Z,8.17
2019-01-05T07:06:43.416Z,7.60
2019-01-05T07:10:01.698Z,7.63
2019-01-05T07:12:49.986Z,8.00
2019-01-05T07:15:59.019Z,7.10
2019-01-05T07:18:57.461Z,7.23
2019-01-05T07:21:52.971Z,6.57
2019-01-05T07:24:45.271Z,7.00
2019-01-05T07:27:57.684Z,6.63
2019-01-05T07:31:11.162Z,6.70
2019-01-05T07:34:08.160Z,7.53
2019-01-05T07:36:56.230Z,6.57
2019-01-05T07:39:59.806Z,7.27
2019-01-05T07:42:58.321Z,6.77
2019-01-05T07:45:46.281Z,7.00
2019-01-05T07:48:52.650Z,6.07
2019-01-05T07:51:45.241Z,6.23
2019-01-05T07:55:00.770Z,6.10
2019-01-05T07:58:01.113Z,6.67
2019-01-05T08:01:09.027Z,6.27
2019-01-05T08:04:00.527Z,6.17
2019-01-05T08:06:57.966Z,6.13
2019-01-05T08:10:16.302Z,7.10
2019-01-05T08:13:17.753Z,6.13
2019-01-05T08:16:14.258Z,6.10
2019-01-05T08:19:33.120Z,5.60
2019-01-05T08:22:39.574Z,6.47
2019-01-05T08:25:40.356Z,5.97
2019-01-05T08:28:39.083Z,5.57
2019-01-05T08:31:35.138Z,5.67
2019-01-05T08:34:46.874Z,6.33
2019-01-05T08:37:53.087Z,6.17
2019-01-05T08:40:29.522Z,6.63
2019-01-05T08:43:38.914Z,6.00
2019-01-05T08:47:00.335Z,5.23
2019-01-05T08:49:45.514Z,4.50
2019-01-05T08:52:56.514Z,4.70
2019-01-05T08:55:56.095Z,5.67
2019-01-05T08:59:09.115Z,4.83
2019-01-05T09:02:13.723Z,4.40
2019-01-05T09:05:05.278Z,4.90
2019-01-05T09:08:06.820Z,5.07
2019-01-05T09:11:08.057Z,4.80
2019-01-05T09:14:19.011Z,4.40
2019-01-05T09:17:19.404Z,4.80
2019-01-05T09:20:20.204Z,5.00
2019-01-05T09:22:53.569Z,5.00
2019-01-05T09:25:59.769Z,4.90
2019-01-05T09:29:06.286Z,4.67
2019-01-05T09:32:00.874Z,4.80
2019-01-05T09:35:14.790Z,4.40
2019-01-05T09:38:06.045Z,4.60
2019-01-05T09:41:05.714Z,4.00
2019-01-05T09:43:47.569Z,5.60
2019-01-05T09:47:05.690Z,4.60
2019-01-05T09:49:55.525Z,5.90
2019-01-05T09:53:16.602Z,4.37
2019-01-05T09:56:12.466Z,4.97
2019-01-05T09:59:11.015Z,4.50
2019-01-05T10:01:52.401Z,4.50
2019-01-05T10:04:46.815Z,4.23
2019-01-05T10:07:47.730Z,4.70
2019-01-05T10:10:50.442Z,4.70
2019-01-05T10:14:12.272Z,4.27
2019-01-05T10:17:12.352Z,4.37
2019-01-05T10:20:21.834Z,4.10
2019-01-05T10:23:10.344Z,3.60
2019-01-05T10:26:22.658Z,4.30
2019-01-05T10:28:58.691Z,3.70
2019-01-05T10:32:09.539Z,4.50
2019-01-05T10:34:57.038Z,4.43
2019-01-05T10:37:41.908Z,3.87
2019-01-05T10:40:30.063Z,4.13
2019-01-05T10:43:28.847Z,3.47
2019-01-05T10:46:13.710Z,3.93
2019-01-05T10:48:52.370Z,4.33
2019-01-05T10:52:04.664Z,3.80
2019-01-05T10:54:58.514Z,3.77
2019-01-05T10:57:58.871Z,4.30
2019-01-05T11:01:05.035Z,4.13
2019-01-05T11:04:15.298Z,4.23
2019-01-05T11:07:09.395Z,3.97
2019-01-05T11:10:14.448Z,4.60
2019-01-05T11:12:50.595Z,4.93
2019-01-05T11:16:01.658Z,4.67
2019-01-05T11:18:59.923Z,4.30
2019-01-05T11:21:47.547Z,4.70
2019-01-05T11:24:47.814Z,4.00
2019-01-05T11:27:43.707Z,3.97
2019-01-05T11:30:46.529Z,3.63
2019-01-05T11:33:38.801Z,4.33
2019-01-05T11:36:34.766Z,4.67
2019-01-05T11:39:29.158Z,3.97
2019-01-05T11:42:34.138Z,4.37
2019-01-05T11:45:35.583Z,4.00
2019-01-05T11:48:42.025Z,3.80
2019-01-05T11:51:34.827Z,4.20
2019-01-05T11:54:46.709Z,3.73
2019-01-05T11:57:56.654Z,3.53
2019-01-05T12:00:55.269Z,3.90
2019-01-05T12:03:52.286Z,3.80
2019-01-05T12:06:42.237Z,3.40
2019-01-05T12:09:44.232Z,3.80
2019-01-05T12:12:52.083Z,4.23
2019-01-05T12:15:55.293Z,4.03
2019-01-05T12:18:40.142Z,3.53
2019-01-05T12:21:54.627Z,3.30
2019-01-05T12:25:09.798Z,4.00
2019-01-05T12:28:01.062Z,3.50
2019-01-05T12:30:53.724Z,4.30
2019-01-05T12:34:00.168Z,3.90
2019-01-05T12:36:51.107Z,3.63
2019-01-05T12:39:39.398Z,3.10
2019-01-05T12:42:18.218Z,3.37
2019-01-05T12:45:18.318Z,3.33
2019-01-05T12:48:03.419Z,3.00
2019-01-05T12:51:00.599Z,3.23
2019-01-05T12:54:19.656Z,3.43
2019-01-05T12:57:26.091Z,3.20
2019-01-05T13:00:33.407Z,3.83
2019-01-05T13:03:22.938Z,3.40
2019-01-05T13:06:04.870Z,3.40
2019-01-05T13:08:55.800Z,3.77
2019-01-05T13:11:49.766Z,3.10
2019-01-05T13:14:43.952Z,3.70
2019-01-05T13:17:38.470Z,3.37
2019-01-05T13:20:43.691Z,3.20
2019-01-05T13:23:49.621Z,3.10
2019-01-05T13:26:40.938Z,3.57
2019-01-05T13:29:42.906Z,3.37
2019-01-05T13:32:41.872Z,3.27
2019-01-05T13:35:40.286Z,3.77
2019-01-05T13:38:48.584Z,3.40
2019-01-05T13:41:57.837Z,3.23
2019-01-05T13:45:02.386Z,3.77
2019-01-05T13:47:54.884Z,3.67
2019-01-05T13:51:18.007Z,3.67
2019-01-05T13:54:06.042Z,4.10
2019-01-05T13:56:36.876Z,3.77
2019-01-05T13:59:14.249Z,4.03
2019-01-05T14:01:56.923Z,4.50
2019-01-05T14:04:39.316Z,3.83
2019-01-05T14:07:26.328Z,3.57
2019-01-05T14:10:02.409Z,3.73
2019-01-05T14:12:38.622Z,4.23
2019-01-05T14:15:27.185Z,3.90
2019-01-05T14:18:00.375Z,4.43
2019-01-05T14:20:42.421Z,4.40
2019-01-05T14:23:21.525Z,4.27
2019-01-05T14:26:08.117Z,4.00
2019-01-05T14:28:38.495Z,4.03
2019-01-05T14:31:18.298Z,4.00
2019-01-05T14:33:53.981Z,4.80
2019-01-05T14:36:40.273Z,4.70
2019-01-05T14:39:10.563Z,4.87
2019-01-05T14:41:56.792Z,5.17
2019-01-05T14:44:30.138Z,4.43
2019-01-05T14:47:22.631Z,4.33
2019-01-05T14:49:52.857Z,4.70
2019-01-05T14:52:39.480Z,4.30
2019-01-05T14:55:26.151Z,4.93
2019-01-05T14:57:56.462Z,4.33
2019-01-05T15:00:32.558Z,4.90
2019-01-05T15:03:05.302Z,4.93
2019-01-05T15:05:51.654Z,4.73
2019-01-05T15:08:27.785Z,5.10
2019-01-05T15:11:03.899Z,5.27
2019-01-05T15:13:50.500Z,5.47
2019-01-05T15:16:36.961Z,5.10
2019-01-05T15:19:25.719Z,5.57
2019-01-05T15:21:58.704Z,6.30
2019-01-05T15:24:37.854Z,6.17
2019-01-05T15:27:25.802Z,6.43
2019-01-05T15:30:12.164Z,5.53
2019-01-05T15:33:00.633Z,6.20
2019-01-05T15:35:33.464Z,6.50
2019-01-05T15:38:03.785Z,6.13
2019-01-05T15:40:50.350Z,6.83
2019-01-05T15:43:26.430Z,6.60
2019-01-05T15:46:12.631Z,8.20
2019-01-05T15:48:51.390Z,8.80
2019-01-05T15:51:38.179Z,8.23
2019-01-05T15:54:17.191Z,6.53
2019-01-05T15:56:52.997Z,6.97
2019-01-05T15:59:23.202Z,7.10
2019-01-05T16:01:59.243Z,7.43
2019-01-05T16:04:47.759Z,8.07
2019-01-05T16:07:36.422Z,6.77
2019-01-05T16:10:24.644Z,7.17
2019-01-05T16:13:11.183Z,8.07
2019-01-05T16:15:50.399Z,8.03
2019-01-05T16:18:23.430Z,7.90
2019-01-05T16:20:59.487Z,7.63
2019-01-05T16:24:05.105Z,9.07
2019-01-05T16:26:51.523Z,8.87
2019-01-05T16:29:24.428Z,10.37
2019-01-05T16:32:03.619Z,7.10
2019-01-05T16:34:51.715Z,8.53
2019-01-05T16:37:24.626Z,8.40
2019-01-05T16:40:00.425Z,8.10
2019-01-05T16:42:39.327Z,8.07
2019-01-05T16:45:09.590Z,7.70
2019-01-05T16:47:56.241Z,7.50
2019-01-05T16:50:32.204Z,7.60
2019-01-05T16:53:11.119Z,7.73
2019-01-05T16:55:53.279Z,7.87
2019-01-05T16:58:41.703Z,7.17
2019-01-05T17:01:14.638Z,7.00
2019-01-05T17:03:47.577Z,7.73
2019-01-05T17:06:32.798Z,6.97
2019-01-05T17:09:19.438Z,7.37
2019-01-05T17:11:55.891Z,7.50
2019-01-05T17:14:42.311Z,7.23
2019-01-05T17:17:18.651Z,7.43
2019-01-05T17:19:57.406Z,7.37
2019-01-05T17:22:28.351Z,7.03
2019-01-05T17:25:07.962Z,7.67
2019-01-05T17:27:50.739Z,7.77
2019-01-05T17:30:29.900Z,7.87
2019-01-05T17:33:16.738Z,8.70
2019-01-05T17:36:04.384Z,8.00
2019-01-05T17:38:40.150Z,9.27
2019-01-05T17:41:12.818Z,7.93
2019-01-05T17:43:58.220Z,7.60
2019-01-05T17:46:44.971Z,7.97
2019-01-05T17:49:34.562Z,9.13
2019-01-05T17:52:21.162Z,8.83
2019-01-05T17:55:07.694Z,8.30
2019-01-05T17:57:37.994Z,8.83
2019-01-05T18:00:09.984Z,9.03
2019-01-05T18:02:56.351Z,9.10
2019-01-05T18:05:42.718Z,8.63
2019-01-05T18:08:29.450Z,9.60
2019-01-05T18:11:08.425Z,8.83
2019-01-05T18:13:39.463Z,8.57
2019-01-05T18:16:25.677Z,8.30
2019-01-05T18:19:12.440Z,9.10
2019-01-05T18:21:42.627Z,9.27
2019-01-05T18:24:12.936Z,9.47
2019-01-05T18:26:59.565Z,8.13
2019-01-05T18:29:29.783Z,9.43
2019-01-05T18:32:09.031Z,9.33
2019-01-05T18:34:39.495Z,8.47
2019-01-05T18:37:27.658Z,8.93
2019-01-05T18:40:14.062Z,9.10
2019-01-05T18:43:02.258Z,9.30
2019-01-05T18:45:35.528Z,8.90
2019-01-05T18:48:17.246Z,9.50
2019-01-05T18:50:59.403Z,9.83
2019-01-05T18:53:35.445Z,9.10
2019-01-05T18:56:11.660Z,8.80
2019-01-05T18:58:47.902Z,8.47
2019-01-05T19:01:20.830Z,8.47
2019-01-05T19:03:51.047Z,7.90
2019-01-05T19:06:37.645Z,8.10
2019-01-05T19:09:25.383Z,7.97
2019-01-05T19:12:12.038Z,7.57
2019-01-05T19:14:45.007Z,8.70
2019-01-05T19:17:38.779Z,8.67
2019-01-05T19:20:09.847Z,8.07
2019-01-05T19:22:56.600Z,8.50
2019-01-05T19:25:26.862Z,7.50
2019-01-05T19:28:14.167Z,8.20
2019-01-05T19:30:44.532Z,7.37
2019-01-05T19:33:23.825Z,6.97
2019-01-05T19:36:02.837Z,7.63
2019-01-05T19:38:38.885Z,7.10
2019-01-05T19:41:25.415Z,7.10
2019-01-05T19:44:10.827Z,7.57
2019-01-05T19:46:52.950Z,7.67
2019-01-05T19:49:39.673Z,8.90
2019-01-05T19:52:18.870Z,8.80
2019-01-05T19:55:05.171Z,8.47
2019-01-05T19:57:35.426Z,7.87
2019-01-05T20:00:24.458Z,8.23
2019-01-05T20:03:11.065Z,9.00
2019-01-05T20:05:57.592Z,9.30
2019-01-05T20:08:43.679Z,9.37
2019-01-05T20:11:30.234Z,9.43
2019-01-05T20:14:16.678Z,8.83
2019-01-05T20:16:52.834Z,9.13
2019-01-05T20:19:54.255Z,8.30
2019-01-05T20:22:30.487Z,8.50
2019-01-05T20:25:16.578Z,8.57
2019-01-05T20:27:46.852Z,8.37
2019-01-05T20:30:17.048Z,8.40
2019-01-05T20:32:47.590Z,9.63
2019-01-05T20:35:18.016Z,7.97
2019-01-05T20:37:48.280Z,8.13
2019-01-05T20:40:27.678Z,8.43
2019-01-05T20:43:14.526Z,8.23
2019-01-05T20:45:59.802Z,8.03
2019-01-05T20:48:46.227Z,8.83
2019-01-05T20:51:22.219Z,8.50
2019-01-05T20:53:52.564Z,7.57
2019-01-05T20:56:22.762Z,8.50
2019-01-05T20:59:11.553Z,7.67
2019-01-05T21:01:41.759Z,7.67
2019-01-05T21:04:17.869Z,7.90
2019-01-05T21:06:48.183Z,7.27
2019-01-05T21:09:27.519Z,8.00
2019-01-05T21:12:09.882Z,6.77
2019-01-05T21:14:46.298Z,7.00
2019-01-05T21:17:22.794Z,7.07
2019-01-05T21:20:09.319Z,7.70
2019-01-05T21:22:45.642Z,10.83
2019-01-05T21:25:32.249Z,7.20
2019-01-05T21:28:14.628Z,7.07
2019-01-05T21:30:44.855Z,6.53
2019-01-05T21:33:25.807Z,7.73
2019-01-05T21:35:55.652Z,7.80
2019-01-05T21:38:43.612Z,6.40
2019-01-05T21:41:22.485Z,8.30
2019-01-05T21:44:01.466Z,6.67
2019-01-05T21:46:37.771Z,6.80
2019-01-05T21:49:26.010Z,6.77
2019-01-05T21:52:12.549Z,5.90
2019-01-05T21:55:18.374Z,6.60
2019-01-05T21:58:05.015Z,6.10
2019-01-05T22:00:35.389Z,7.10
2019-01-05T22:03:11.219Z,6.40
2019-01-05T22:05:58.302Z,6.00
2019-01-05T22:08:46.740Z,6.10
2019-01-05T22:11:17.075Z,6.60
2019-01-05T22:13:47.465Z,6.53
2019-01-05T22:16:33.982Z,7.20
2019-01-05T22:19:21.165Z,6.23
2019-01-05T22:21:51.519Z,6.47
2019-01-05T22:24:27.692Z,7.83
2019-01-05T22:27:14.855Z,7.57
2019-01-05T22:29:45.074Z,6.73
2019-01-05T22:32:21.113Z,6.23
2019-01-05T22:35:07.489Z,5.40
2019-01-05T22:37:54.249Z,6.20
2019-01-05T22:40:30.481Z,6.87
2019-01-05T22:43:00.690Z,6.10
2019-01-05T22:45:33.498Z,4.83
2019-01-05T22:48:09.535Z,5.27
2019-01-05T22:50:58.222Z,5.53
2019-01-05T22:53:43.270Z,5.13
2019-01-05T22:56:29.420Z,6.33
2019-01-05T22:59:02.308Z,4.90
2019-01-05T23:01:44.387Z,5.30
2019-01-05T23:04:20.607Z,4.50
2019-01-05T23:06:53.517Z,4.60
2019-01-05T23:09:39.915Z,5.60
2019-01-05T23:12:13.266Z,4.37
2019-01-05T23:14:49.375Z,5.63
2019-01-05T23:17:34.789Z,5.03
2019-01-05T23:20:22.045Z,4.10
2019-01-05T23:23:01.348Z,4.93
2019-01-05T23:25:31.506Z,4.00
2019-01-05T23:28:02.493Z,5.40
2019-01-05T23:30:38.294Z,4.27
2019-01-05T23:33:08.561Z,4.93
2019-01-05T23:35:38.795Z,4.40
2019-01-05T23:38:11.475Z,5.27
2019-01-05T23:40:45.610Z,4.17
2019-01-05T23:43:15.743Z,4.23
2019-01-05T23:45:45.963Z,4.10
2019-01-05T23:48:16.153Z,4.30
2019-01-05T23:50:52.358Z,4.30
2019-01-05T23:53:37.772Z,4.90
2019-01-05T23:56:11.093Z,3.70
2019-01-05T23:58:47.066Z,4.10
